Home   Weather   Russia   Kaliningrad   Past weeks
Flag for Russia

Past Weather in Kaliningrad, Russia — Yesterday and Last 2 Weeks

Currently: 45 °F. Sunny. (Weather station: Kaliningrad/Khrabrovo Airport, Russia). See more current weather

Past Weather in Kaliningrad — Graph

°F

Kaliningrad Temperature Yesterday

Maximum temperature yesterday: 57 °F (at 3:55 pm)
Minimum temperature yesterday: 45 °F (at 4:58 am)
Average temperature yesterday: 51 °F

High & Low Weather Summary for the Past Weeks

  Temperature Humidity Pressure
High 81 °F (May 3, 2:30 pm) 100% (Apr 24, 5:30 am) 30.42 "Hg (Apr 24, 5:30 am)
Low 28 °F (Apr 28, 12:30 am) 18% (May 3, 2:30 pm) 29.56 "Hg (Apr 25, 9:30 pm)
Average 48 °F 70% 30.03 "Hg
* Reported Apr 24 5:00 am — May 9 5:30 am, Kaliningrad. Weather by CustomWeather, © 2026

Note: Actual official high and low records may vary slightly from our data, if they occured in-between our weather recording intervals... More about our weather records

Kaliningrad Weather History for the Previous 24 Hours

Scroll right to see more
  Conditions Comfort    
Time   Temp Weather Wind   Humidity Barometer Visibility
5:30 am
Sat, May 9
43 °F Clear. 3 mph 87% 30.15 "Hg 10 mi
5:00 am 45 °F Clear. 3 mph 81% 30.15 "Hg 10 mi
4:30 am 46 °F Clear. 3 mph 82% 30.15 "Hg 10 mi
4:00 am 45 °F Passing clouds. 3 mph 81% 30.15 "Hg N/A
3:30 am 45 °F Clear. 6 mph 87% 30.15 "Hg 10 mi
3:00 am 46 °F Clear. 6 mph 82% 30.15 "Hg 10 mi
2:30 am 46 °F Clear. 3 mph 82% 30.15 "Hg 10 mi
2:00 am 48 °F Clear. 1 mph 76% 30.15 "Hg 10 mi
1:30 am 48 °F Clear. No wind 76% 30.15 "Hg 10 mi
1:00 am 50 °F Clear. 1 mph 71% 30.15 "Hg 10 mi
12:30 am 50 °F Clear. 3 mph 76% 30.15 "Hg 10 mi
12:00 am 52 °F Clear. 6 mph 67% 30.15 "Hg 10 mi
11:30 pm
Fri, May 8
52 °F Clear. 8 mph 67% 30.15 "Hg 10 mi
11:00 pm 52 °F Clear. 8 mph 72% 30.15 "Hg 10 mi
10:45 pm 52 °F Clear. 6 mph 67% 30.15 "Hg 10 mi
10:30 pm 48 °F Clear. 1 mph 76% 30.15 "Hg 10 mi
10:00 pm 46 °F Passing clouds. 3 mph 82% 30.15 "Hg N/A
9:30 pm 48 °F Clear. 3 mph 82% 30.15 "Hg 10 mi
9:00 pm 50 °F Passing clouds. 3 mph 76% 30.12 "Hg N/A
8:30 pm 50 °F Sunny. 1 mph 76% 30.12 "Hg 10 mi
8:00 pm 50 °F Sunny. 3 mph 76% 30.12 "Hg 10 mi
7:30 pm 52 °F Sunny. 6 mph 72% 30.12 "Hg 10 mi
7:00 pm 54 °F Sunny. 6 mph 67% 30.12 "Hg 10 mi
6:30 pm 55 °F Sunny. 6 mph 63% 30.09 "Hg 10 mi
6:00 pm 55 °F Sunny. 6 mph 55% 30.09 "Hg 10 mi
5:30 pm 55 °F Sunny. 8 mph 55% 30.09 "Hg 10 mi
5:00 pm 57 °F Sunny. 10 mph 51% 30.09 "Hg 10 mi
4:30 pm 57 °F Sunny. 15 mph 48% 30.09 "Hg 10 mi
4:09 pm 57 °F Passing clouds. 10 mph 44% 30.09 "Hg N/A
3:55 pm 57 °F Passing clouds. 8 mph 55% 30.12 "Hg N/A
3:30 pm 54 °F Passing clouds. 8 mph 63% 30.12 "Hg N/A
3:00 pm 52 °F Sunny. 10 mph 72% 30.12 "Hg 10 mi
2:30 pm 52 °F Sunny. 10 mph 67% 30.12 "Hg 10 mi
2:00 pm 52 °F Passing clouds. 10 mph 72% 30.12 "Hg N/A
1:30 pm 52 °F Sunny. 13 mph 72% 30.12 "Hg 10 mi
1:00 pm 52 °F Sunny. 10 mph 72% 30.12 "Hg 10 mi
12:30 pm 54 °F Sunny. 10 mph 63% 30.12 "Hg 10 mi
12:00 pm 54 °F Sunny. 13 mph 67% 30.12 "Hg 10 mi
11:30 am 55 °F Passing clouds. 13 mph 47% 30.12 "Hg N/A
11:00 am 54 °F Passing clouds. 15 mph 51% 30.12 "Hg N/A
10:45 am 54 °F Passing clouds. 13 mph 51% 30.12 "Hg N/A
10:30 am 54 °F Passing clouds. 13 mph 54% 30.12 "Hg N/A
10:00 am 54 °F Sunny. 15 mph 58% 30.12 "Hg 10 mi
9:30 am 50 °F Sunny. 15 mph 67% 30.12 "Hg 10 mi
9:00 am 50 °F Sunny. 15 mph 67% 30.12 "Hg 10 mi
8:30 am 50 °F Sunny. 15 mph 67% 30.12 "Hg 10 mi
8:00 am 48 °F Sunny. 13 mph 71% 30.09 "Hg 10 mi
7:30 am 48 °F Sunny. 10 mph 71% 30.09 "Hg 10 mi
7:00 am 48 °F Sunny. 10 mph 71% 30.09 "Hg 10 mi
6:30 am 46 °F Sunny. 10 mph 71% 30.09 "Hg 10 mi
6:10 am 46 °F Sunny. 10 mph 71% 30.09 "Hg 10 mi
6:00 am 46 °F Sunny. 8 mph 71% 30.09 "Hg 10 mi
Weather by CustomWeather, © 2026

See weather overview